sensor_id;sensor_type;location;lat;lon;timestamp;temperature;humidity
8684;DHT22;4379;59.744;18.206;2023-02-13T00:00:48;-1.20;99.90
8684;DHT22;4379;59.744;18.206;2023-02-13T00:03:15;-1.20;99.90
8684;DHT22;4379;59.744;18.206;2023-02-13T00:05:43;-1.20;99.90
8684;DHT22;4379;59.744;18.206;2023-02-13T00:08:11;-1.30;99.90
8684;DHT22;4379;59.744;18.206;2023-02-13T00:10:38;-1.30;99.90
8684;DHT22;4379;59.744;18.206;2023-02-13T00:13:06;-1.40;99.90
8684;DHT22;4379;59.744;18.206;2023-02-13T00:15:33;-1.30;99.90
8684;DHT22;4379;59.744;18.206;2023-02-13T00:18:01;-1.30;99.90
8684;DHT22;4379;59.744;18.206;2023-02-13T00:20:29;-1.10;99.90
8684;DHT22;4379;59.744;18.206;2023-02-13T00:22:58;-1.20;99.90
8684;DHT22;4379;59.744;18.206;2023-02-13T00:25:25;-1.20;99.90
8684;DHT22;4379;59.744;18.206;2023-02-13T00:27:53;-1.10;99.90
8684;DHT22;4379;59.744;18.206;2023-02-13T00:30:21;-1.10;99.90
8684;DHT22;4379;59.744;18.206;2023-02-13T00:32:48;-0.90;99.90
8684;DHT22;4379;59.744;18.206;2023-02-13T00:35:16;-1.00;99.90
8684;DHT22;4379;59.744;18.206;2023-02-13T00:37:46;-1.10;99.90
8684;DHT22;4379;59.744;18.206;2023-02-13T00:40:13;-1.00;99.90
8684;DHT22;4379;59.744;18.206;2023-02-13T00:42:42;-1.00;99.90
8684;DHT22;4379;59.744;18.206;2023-02-13T00:45:10;-1.10;99.90
8684;DHT22;4379;59.744;18.206;2023-02-13T00:47:37;-1.20;99.90
8684;DHT22;4379;59.744;18.206;2023-02-13T00:50:05;-1.30;99.90
8684;DHT22;4379;59.744;18.206;2023-02-13T00:52:32;-1.20;99.90
8684;DHT22;4379;59.744;18.206;2023-02-13T00:55:00;-1.20;99.90
8684;DHT22;4379;59.744;18.206;2023-02-13T00:57:27;-1.20;99.90
8684;DHT22;4379;59.744;18.206;2023-02-13T00:59:57;-1.30;99.90
8684;DHT22;4379;59.744;18.206;2023-02-13T01:02:25;-1.20;99.90
8684;DHT22;4379;59.744;18.206;2023-02-13T01:04:52;-1.20;99.90
8684;DHT22;4379;59.744;18.206;2023-02-13T01:07:20;-1.30;99.90
8684;DHT22;4379;59.744;18.206;2023-02-13T01:09:47;-1.30;99.90
8684;DHT22;4379;59.744;18.206;2023-02-13T01:12:15;-1.40;99.90
8684;DHT22;4379;59.744;18.206;2023-02-13T01:14:42;-1.40;99.90
8684;DHT22;4379;59.744;18.206;2023-02-13T01:17:09;-1.50;99.90
8684;DHT22;4379;59.744;18.206;2023-02-13T01:19:39;-1.50;99.90
8684;DHT22;4379;59.744;18.206;2023-02-13T01:22:07;-1.40;99.90
8684;DHT22;4379;59.744;18.206;2023-02-13T01:24:34;-1.30;99.90
8684;DHT22;4379;59.744;18.206;2023-02-13T01:27:02;-1.20;99.90
8684;DHT22;4379;59.744;18.206;2023-02-13T01:29:29;-1.10;99.90
8684;DHT22;4379;59.744;18.206;2023-02-13T01:31:57;-1.20;99.90
8684;DHT22;4379;59.744;18.206;2023-02-13T01:34:24;-1.20;99.90
8684;DHT22;4379;59.744;18.206;2023-02-13T01:36:51;-1.20;99.90
8684;DHT22;4379;59.744;18.206;2023-02-13T01:39:19;-1.20;99.90
8684;DHT22;4379;59.744;18.206;2023-02-13T01:41:46;-1.30;99.90
8684;DHT22;4379;59.744;18.206;2023-02-13T01:44:52;-1.20;99.90
8684;DHT22;4379;59.744;18.206;2023-02-13T01:47:27;-1.20;99.90
8684;DHT22;4379;59.744;18.206;2023-02-13T01:50:15;-1.10;99.90
8684;DHT22;4379;59.744;18.206;2023-02-13T01:52:47;-1.20;99.90
8684;DHT22;4379;59.744;18.206;2023-02-13T01:55:16;-1.30;99.90
8684;DHT22;4379;59.744;18.206;2023-02-13T01:57:53;-1.30;99.90
8684;DHT22;4379;59.744;18.206;2023-02-13T02:00:23;-1.40;99.90
8684;DHT22;4379;59.744;18.206;2023-02-13T02:02:57;-1.50;99.90
8684;DHT22;4379;59.744;18.206;2023-02-13T02:05:28;-1.50;99.90
8684;DHT22;4379;59.744;18.206;2023-02-13T02:07:59;-1.40;99.90
8684;DHT22;4379;59.744;18.206;2023-02-13T02:10:28;-1.40;99.90
8684;DHT22;4379;59.744;18.206;2023-02-13T02:13:22;-1.50;99.90
8684;DHT22;4379;59.744;18.206;2023-02-13T02:15:49;-1.50;99.90
8684;DHT22;4379;59.744;18.206;2023-02-13T02:18:20;-1.50;99.90
8684;DHT22;4379;59.744;18.206;2023-02-13T02:23:52;-1.50;99.90
8684;DHT22;4379;59.744;18.206;2023-02-13T02:32:34;-1.40;99.90
8684;DHT22;4379;59.744;18.206;2023-02-13T02:43:41;-1.40;99.90
8684;DHT22;4379;59.744;18.206;2023-02-13T02:46:36;-1.40;99.90
8684;DHT22;4379;59.744;18.206;2023-02-13T02:49:10;-1.40;99.90
8684;DHT22;4379;59.744;18.206;2023-02-13T02:52:07;-1.40;99.90
8684;DHT22;4379;59.744;18.206;2023-02-13T02:54:51;-1.50;99.90
8684;DHT22;4379;59.744;18.206;2023-02-13T02:57:44;-1.50;99.90
8684;DHT22;4379;59.744;18.206;2023-02-13T03:00:32;-1.50;99.90
8684;DHT22;4379;59.744;18.206;2023-02-13T03:03:22;-1.50;99.90
8684;DHT22;4379;59.744;18.206;2023-02-13T03:09:20;-1.40;99.90
8684;DHT22;4379;59.744;18.206;2023-02-13T03:12:08;-1.40;99.90
8684;DHT22;4379;59.744;18.206;2023-02-13T03:14:56;-1.30;99.90
8684;DHT22;4379;59.744;18.206;2023-02-13T03:17:23;-1.30;99.90
8684;DHT22;4379;59.744;18.206;2023-02-13T03:20:44;-1.30;99.90
8684;DHT22;4379;59.744;18.206;2023-02-13T03:23:59;-1.30;99.90
8684;DHT22;4379;59.744;18.206;2023-02-13T03:29:55;-1.40;99.90
8684;DHT22;4379;59.744;18.206;2023-02-13T03:41:06;-1.30;99.90
8684;DHT22;4379;59.744;18.206;2023-02-13T03:44:02;-1.30;99.90
8684;DHT22;4379;59.744;18.206;2023-02-13T03:46:37;-1.20;99.90
8684;DHT22;4379;59.744;18.206;2023-02-13T03:49:06;-1.20;99.90
8684;DHT22;4379;59.744;18.206;2023-02-13T03:52:26;-1.20;99.90
8684;DHT22;4379;59.744;18.206;2023-02-13T03:55:15;-1.20;99.90
8684;DHT22;4379;59.744;18.206;2023-02-13T03:58:11;-1.20;99.90
8684;DHT22;4379;59.744;18.206;2023-02-13T04:01:01;-1.20;99.90
8684;DHT22;4379;59.744;18.206;2023-02-13T04:03:36;-1.30;99.90
8684;DHT22;4379;59.744;18.206;2023-02-13T04:06:12;-1.20;99.90
8684;DHT22;4379;59.744;18.206;2023-02-13T04:08:40;-1.20;99.90
8684;DHT22;4379;59.744;18.206;2023-02-13T04:11:20;-1.10;99.90
8684;DHT22;4379;59.744;18.206;2023-02-13T04:13:59;-1.00;99.90
8684;DHT22;4379;59.744;18.206;2023-02-13T04:16:40;-1.00;99.90
8684;DHT22;4379;59.744;18.206;2023-02-13T04:19:09;-1.00;99.90
8684;DHT22;4379;59.744;18.206;2023-02-13T04:21:38;-1.00;99.90
8684;DHT22;4379;59.744;18.206;2023-02-13T04:24:09;-1.00;99.90
8684;DHT22;4379;59.744;18.206;2023-02-13T04:26:41;-1.20;99.90
8684;DHT22;4379;59.744;18.206;2023-02-13T04:29:08;-1.20;99.90
8684;DHT22;4379;59.744;18.206;2023-02-13T04:31:36;-1.20;99.90
8684;DHT22;4379;59.744;18.206;2023-02-13T04:34:03;-1.20;99.90
8684;DHT22;4379;59.744;18.206;2023-02-13T04:36:30;-1.20;99.90
8684;DHT22;4379;59.744;18.206;2023-02-13T04:38:57;-1.10;99.90
8684;DHT22;4379;59.744;18.206;2023-02-13T04:41:25;-1.10;99.90
8684;DHT22;4379;59.744;18.206;2023-02-13T04:43:52;-1.10;99.90
8684;DHT22;4379;59.744;18.206;2023-02-13T04:46:20;-1.10;99.90
8684;DHT22;4379;59.744;18.206;2023-02-13T04:48:47;-1.00;99.90
8684;DHT22;4379;59.744;18.206;2023-02-13T04:51:14;-1.10;99.90
8684;DHT22;4379;59.744;18.206;2023-02-13T04:53:42;-1.10;99.90
8684;DHT22;4379;59.744;18.206;2023-02-13T04:56:09;-1.20;99.90
8684;DHT22;4379;59.744;18.206;2023-02-13T04:58:37;-1.30;99.90
8684;DHT22;4379;59.744;18.206;2023-02-13T05:01:12;-1.30;99.90
8684;DHT22;4379;59.744;18.206;2023-02-13T05:03:40;-1.30;99.90
8684;DHT22;4379;59.744;18.206;2023-02-13T05:06:08;-1.30;99.90
8684;DHT22;4379;59.744;18.206;2023-02-13T05:08:35;-1.20;99.90
8684;DHT22;4379;59.744;18.206;2023-02-13T05:11:02;-1.20;99.90
8684;DHT22;4379;59.744;18.206;2023-02-13T05:13:30;-1.20;99.90
8684;DHT22;4379;59.744;18.206;2023-02-13T05:15:57;-1.30;99.90
8684;DHT22;4379;59.744;18.206;2023-02-13T05:18:24;-1.40;99.90
8684;DHT22;4379;59.744;18.206;2023-02-13T05:20:51;-1.50;99.90
8684;DHT22;4379;59.744;18.206;2023-02-13T05:23:37;-1.60;99.90
8684;DHT22;4379;59.744;18.206;2023-02-13T05:26:05;-1.50;99.90
8684;DHT22;4379;59.744;18.206;2023-02-13T05:28:32;-1.50;99.90
8684;DHT22;4379;59.744;18.206;2023-02-13T05:31:18;-1.40;99.90
8684;DHT22;4379;59.744;18.206;2023-02-13T05:33:46;-1.50;99.90
8684;DHT22;4379;59.744;18.206;2023-02-13T05:36:13;-1.50;99.90
8684;DHT22;4379;59.744;18.206;2023-02-13T05:38:43;-1.40;99.90
8684;DHT22;4379;59.744;18.206;2023-02-13T05:41:11;-1.40;99.90
8684;DHT22;4379;59.744;18.206;2023-02-13T05:43:41;-1.40;99.90
8684;DHT22;4379;59.744;18.206;2023-02-13T05:46:09;-1.40;99.90
8684;DHT22;4379;59.744;18.206;2023-02-13T05:48:36;-1.40;99.90
8684;DHT22;4379;59.744;18.206;2023-02-13T05:51:04;-1.50;99.90
8684;DHT22;4379;59.744;18.206;2023-02-13T05:53:31;-1.50;99.90
8684;DHT22;4379;59.744;18.206;2023-02-13T05:56:05;-1.50;99.90
8684;DHT22;4379;59.744;18.206;2023-02-13T05:58:33;-1.50;99.90
8684;DHT22;4379;59.744;18.206;2023-02-13T06:01:00;-1.50;99.90
8684;DHT22;4379;59.744;18.206;2023-02-13T06:03:29;-1.50;99.90
8684;DHT22;4379;59.744;18.206;2023-02-13T06:05:58;-1.60;99.90
8684;DHT22;4379;59.744;18.206;2023-02-13T06:08:25;-1.50;99.90
8684;DHT22;4379;59.744;18.206;2023-02-13T06:10:53;-1.50;99.90
8684;DHT22;4379;59.744;18.206;2023-02-13T06:13:20;-1.50;99.90
8684;DHT22;4379;59.744;18.206;2023-02-13T06:15:48;-1.60;99.90
8684;DHT22;4379;59.744;18.206;2023-02-13T06:18:17;-1.60;99.90
8684;DHT22;4379;59.744;18.206;2023-02-13T06:20:45;-1.50;99.90
8684;DHT22;4379;59.744;18.206;2023-02-13T06:23:12;-1.60;99.90
8684;DHT22;4379;59.744;18.206;2023-02-13T06:25:39;-1.50;99.90
8684;DHT22;4379;59.744;18.206;2023-02-13T06:28:06;-1.50;99.90
8684;DHT22;4379;59.744;18.206;2023-02-13T06:30:34;-1.60;99.90
8684;DHT22;4379;59.744;18.206;2023-02-13T06:33:01;-1.60;99.90
8684;DHT22;4379;59.744;18.206;2023-02-13T06:35:29;-1.70;99.90
8684;DHT22;4379;59.744;18.206;2023-02-13T06:37:56;-1.80;99.90
8684;DHT22;4379;59.744;18.206;2023-02-13T06:40:23;-1.70;99.90
8684;DHT22;4379;59.744;18.206;2023-02-13T06:42:52;-1.70;99.90
8684;DHT22;4379;59.744;18.206;2023-02-13T06:45:20;-1.60;99.90
8684;DHT22;4379;59.744;18.206;2023-02-13T06:47:48;-1.50;99.90
8684;DHT22;4379;59.744;18.206;2023-02-13T06:50:16;-1.40;99.90
8684;DHT22;4379;59.744;18.206;2023-02-13T06:52:49;-1.40;99.90
8684;DHT22;4379;59.744;18.206;2023-02-13T06:55:18;-1.40;99.90
8684;DHT22;4379;59.744;18.206;2023-02-13T06:57:48;-1.40;99.90
8684;DHT22;4379;59.744;18.206;2023-02-13T07:00:17;-1.30;99.90
8684;DHT22;4379;59.744;18.206;2023-02-13T07:02:46;-1.40;99.90
8684;DHT22;4379;59.744;18.206;2023-02-13T07:05:13;-1.40;99.90
8684;DHT22;4379;59.744;18.206;2023-02-13T07:07:41;-1.30;99.90
8684;DHT22;4379;59.744;18.206;2023-02-13T07:10:11;-1.30;99.90
8684;DHT22;4379;59.744;18.206;2023-02-13T07:12:41;-1.30;99.90
8684;DHT22;4379;59.744;18.206;2023-02-13T07:15:13;-1.40;99.90
8684;DHT22;4379;59.744;18.206;2023-02-13T07:17:40;-1.50;99.90
8684;DHT22;4379;59.744;18.206;2023-02-13T07:20:08;-1.50;99.90
8684;DHT22;4379;59.744;18.206;2023-02-13T07:22:35;-1.30;99.90
8684;DHT22;4379;59.744;18.206;2023-02-13T07:25:03;-1.30;99.90
8684;DHT22;4379;59.744;18.206;2023-02-13T07:27:31;-1.20;99.90
8684;DHT22;4379;59.744;18.206;2023-02-13T07:29:58;-1.20;99.90
8684;DHT22;4379;59.744;18.206;2023-02-13T07:32:26;-1.10;99.90
8684;DHT22;4379;59.744;18.206;2023-02-13T07:34:53;-1.00;99.90
8684;DHT22;4379;59.744;18.206;2023-02-13T07:37:29;-1.00;99.90
8684;DHT22;4379;59.744;18.206;2023-02-13T07:39:57;-0.90;99.90
8684;DHT22;4379;59.744;18.206;2023-02-13T07:42:24;-0.90;99.90
8684;DHT22;4379;59.744;18.206;2023-02-13T07:44:52;-0.80;99.90
8684;DHT22;4379;59.744;18.206;2023-02-13T07:47:19;-0.70;99.90
8684;DHT22;4379;59.744;18.206;2023-02-13T07:49:47;-0.60;99.90
8684;DHT22;4379;59.744;18.206;2023-02-13T07:52:14;-0.50;99.90
8684;DHT22;4379;59.744;18.206;2023-02-13T07:54:42;-0.60;99.90
8684;DHT22;4379;59.744;18.206;2023-02-13T07:57:15;-0.60;99.90
8684;DHT22;4379;59.744;18.206;2023-02-13T07:59:42;-0.50;99.90
8684;DHT22;4379;59.744;18.206;2023-02-13T08:02:11;-0.50;99.90
8684;DHT22;4379;59.744;18.206;2023-02-13T08:04:40;-0.40;99.90
8684;DHT22;4379;59.744;18.206;2023-02-13T08:07:16;-0.30;99.90
8684;DHT22;4379;59.744;18.206;2023-02-13T08:09:45;-0.20;99.90
8684;DHT22;4379;59.744;18.206;2023-02-13T08:12:32;-0.10;99.90
8684;DHT22;4379;59.744;18.206;2023-02-13T08:15:02;0.00;99.90
8684;DHT22;4379;59.744;18.206;2023-02-13T08:17:29;0.20;99.90
8684;DHT22;4379;59.744;18.206;2023-02-13T08:19:57;0.30;99.90
8684;DHT22;4379;59.744;18.206;2023-02-13T08:22:24;0.40;99.90
8684;DHT22;4379;59.744;18.206;2023-02-13T08:24:52;0.60;99.90
8684;DHT22;4379;59.744;18.206;2023-02-13T08:27:19;0.70;99.90
8684;DHT22;4379;59.744;18.206;2023-02-13T08:29:48;0.90;99.90
8684;DHT22;4379;59.744;18.206;2023-02-13T08:32:17;1.00;99.90
8684;DHT22;4379;59.744;18.206;2023-02-13T08:34:47;1.30;99.90
8684;DHT22;4379;59.744;18.206;2023-02-13T08:37:15;1.30;99.90
8684;DHT22;4379;59.744;18.206;2023-02-13T08:39:42;1.50;99.90
8684;DHT22;4379;59.744;18.206;2023-02-13T08:42:10;1.60;99.90
8684;DHT22;4379;59.744;18.206;2023-02-13T08:44:43;1.60;99.90
8684;DHT22;4379;59.744;18.206;2023-02-13T08:47:10;1.70;99.90
8684;DHT22;4379;59.744;18.206;2023-02-13T08:49:38;1.70;99.90
8684;DHT22;4379;59.744;18.206;2023-02-13T08:52:05;1.70;99.90
8684;DHT22;4379;59.744;18.206;2023-02-13T08:54:33;1.70;99.90
8684;DHT22;4379;59.744;18.206;2023-02-13T08:57:02;1.80;99.90
8684;DHT22;4379;59.744;18.206;2023-02-13T08:59:30;1.90;99.90
8684;DHT22;4379;59.744;18.206;2023-02-13T09:01:57;2.20;99.90
8684;DHT22;4379;59.744;18.206;2023-02-13T09:04:25;2.20;99.90
8684;DHT22;4379;59.744;18.206;2023-02-13T09:06:53;2.30;99.90
8684;DHT22;4379;59.744;18.206;2023-02-13T09:09:20;2.30;99.90
8684;DHT22;4379;59.744;18.206;2023-02-13T09:11:47;2.40;99.90
8684;DHT22;4379;59.744;18.206;2023-02-13T09:14:17;2.80;99.90
8684;DHT22;4379;59.744;18.206;2023-02-13T09:16:44;2.80;99.90
8684;DHT22;4379;59.744;18.206;2023-02-13T09:19:11;3.00;99.90
8684;DHT22;4379;59.744;18.206;2023-02-13T09:21:39;2.80;99.90
8684;DHT22;4379;59.744;18.206;2023-02-13T09:24:08;3.00;99.90
8684;DHT22;4379;59.744;18.206;2023-02-13T09:26:35;3.20;99.90
8684;DHT22;4379;59.744;18.206;2023-02-13T09:29:03;3.40;99.90
8684;DHT22;4379;59.744;18.206;2023-02-13T09:31:31;3.20;99.90
8684;DHT22;4379;59.744;18.206;2023-02-13T09:33:58;3.30;99.90
8684;DHT22;4379;59.744;18.206;2023-02-13T09:36:25;3.40;99.90
8684;DHT22;4379;59.744;18.206;2023-02-13T09:38:55;3.70;99.90
8684;DHT22;4379;59.744;18.206;2023-02-13T09:43:57;3.60;99.90
8684;DHT22;4379;59.744;18.206;2023-02-13T09:46:39;3.70;99.90
8684;DHT22;4379;59.744;18.206;2023-02-13T09:49:12;3.50;99.90
8684;DHT22;4379;59.744;18.206;2023-02-13T09:51:46;3.50;99.90
8684;DHT22;4379;59.744;18.206;2023-02-13T09:54:15;3.60;99.90
8684;DHT22;4379;59.744;18.206;2023-02-13T10:04:49;4.00;99.90
8684;DHT22;4379;59.744;18.206;2023-02-13T10:07:56;4.30;99.90
8684;DHT22;4379;59.744;18.206;2023-02-13T10:15:47;4.30;99.90
8684;DHT22;4379;59.744;18.206;2023-02-13T10:18:24;4.40;99.90
8684;DHT22;4379;59.744;18.206;2023-02-13T10:21:00;4.30;99.90
8684;DHT22;4379;59.744;18.206;2023-02-13T10:23:42;4.30;99.90
8684;DHT22;4379;59.744;18.206;2023-02-13T10:26:20;4.70;99.90
8684;DHT22;4379;59.744;18.206;2023-02-13T10:32:08;4.80;99.90
8684;DHT22;4379;59.744;18.206;2023-02-13T10:34:42;4.90;99.90
8684;DHT22;4379;59.744;18.206;2023-02-13T10:37:17;4.80;99.90
8684;DHT22;4379;59.744;18.206;2023-02-13T10:39:47;4.80;99.90
8684;DHT22;4379;59.744;18.206;2023-02-13T10:45:02;4.60;99.90
8684;DHT22;4379;59.744;18.206;2023-02-13T10:50:31;4.70;99.90
8684;DHT22;4379;59.744;18.206;2023-02-13T10:53:35;4.80;99.90
8684;DHT22;4379;59.744;18.206;2023-02-13T11:02:27;4.80;99.90
8684;DHT22;4379;59.744;18.206;2023-02-13T11:05:12;4.70;99.90
8684;DHT22;4379;59.744;18.206;2023-02-13T11:07:40;4.90;99.90
8684;DHT22;4379;59.744;18.206;2023-02-13T11:10:18;5.00;99.90
8684;DHT22;4379;59.744;18.206;2023-02-13T11:12:47;4.90;99.90
8684;DHT22;4379;59.744;18.206;2023-02-13T11:15:31;5.00;99.90
8684;DHT22;4379;59.744;18.206;2023-02-13T11:18:07;5.10;99.90
8684;DHT22;4379;59.744;18.206;2023-02-13T11:20:40;5.20;99.90
8684;DHT22;4379;59.744;18.206;2023-02-13T11:28:30;5.30;99.90
8684;DHT22;4379;59.744;18.206;2023-02-13T11:33:51;5.10;99.90
8684;DHT22;4379;59.744;18.206;2023-02-13T11:36:28;5.00;99.90
8684;DHT22;4379;59.744;18.206;2023-02-13T11:39:16;5.00;99.90
8684;DHT22;4379;59.744;18.206;2023-02-13T11:41:45;5.00;99.90
8684;DHT22;4379;59.744;18.206;2023-02-13T11:44:26;5.00;99.90
8684;DHT22;4379;59.744;18.206;2023-02-13T11:46:57;4.90;99.90
8684;DHT22;4379;59.744;18.206;2023-02-13T11:49:30;5.10;99.90
8684;DHT22;4379;59.744;18.206;2023-02-13T11:52:05;5.10;99.90
8684;DHT22;4379;59.744;18.206;2023-02-13T11:54:38;5.20;99.90
8684;DHT22;4379;59.744;18.206;2023-02-13T11:57:33;5.20;99.90
8684;DHT22;4379;59.744;18.206;2023-02-13T12:00:33;5.40;99.90
8684;DHT22;4379;59.744;18.206;2023-02-13T12:03:27;5.50;99.90
8684;DHT22;4379;59.744;18.206;2023-02-13T12:08:37;5.60;99.90
8684;DHT22;4379;59.744;18.206;2023-02-13T12:11:33;5.50;99.90
8684;DHT22;4379;59.744;18.206;2023-02-13T12:14:01;5.60;99.90
8684;DHT22;4379;59.744;18.206;2023-02-13T12:19:24;5.60;99.90
8684;DHT22;4379;59.744;18.206;2023-02-13T12:28:10;5.60;99.90
8684;DHT22;4379;59.744;18.206;2023-02-13T12:47:57;5.60;99.90
8684;DHT22;4379;59.744;18.206;2023-02-13T12:53:09;5.60;99.90
8684;DHT22;4379;59.744;18.206;2023-02-13T12:58:53;5.70;99.90
8684;DHT22;4379;59.744;18.206;2023-02-13T13:12:33;5.60;99.90
8684;DHT22;4379;59.744;18.206;2023-02-13T13:26:02;5.50;99.90
8684;DHT22;4379;59.744;18.206;2023-02-13T13:28:37;5.40;99.90
8684;DHT22;4379;59.744;18.206;2023-02-13T13:31:05;5.40;99.90
8684;DHT22;4379;59.744;18.206;2023-02-13T13:33:35;5.30;99.90
8684;DHT22;4379;59.744;18.206;2023-02-13T13:36:19;5.20;99.90
8684;DHT22;4379;59.744;18.206;2023-02-13T13:38:59;5.30;99.90
8684;DHT22;4379;59.744;18.206;2023-02-13T13:44:27;5.20;99.90
8684;DHT22;4379;59.744;18.206;2023-02-13T13:47:19;5.10;99.90
8684;DHT22;4379;59.744;18.206;2023-02-13T13:49:51;5.20;99.90
8684;DHT22;4379;59.744;18.206;2023-02-13T13:54:53;5.20;99.90
8684;DHT22;4379;59.744;18.206;2023-02-13T13:57:23;5.00;99.90
8684;DHT22;4379;59.744;18.206;2023-02-13T13:59:57;4.90;99.90
8684;DHT22;4379;59.744;18.206;2023-02-13T14:02:48;4.80;99.90
8684;DHT22;4379;59.744;18.206;2023-02-13T14:05:24;4.80;99.90
8684;DHT22;4379;59.744;18.206;2023-02-13T14:08:01;4.70;99.90
8684;DHT22;4379;59.744;18.206;2023-02-13T14:12:58;4.70;99.90
8684;DHT22;4379;59.744;18.206;2023-02-13T14:18:19;4.60;99.90
8684;DHT22;4379;59.744;18.206;2023-02-13T14:26:09;4.50;99.90
8684;DHT22;4379;59.744;18.206;2023-02-13T14:28:40;4.50;99.90
8684;DHT22;4379;59.744;18.206;2023-02-13T14:34:15;4.60;99.90
8684;DHT22;4379;59.744;18.206;2023-02-13T14:39:33;4.70;99.90
8684;DHT22;4379;59.744;18.206;2023-02-13T14:42:24;4.70;99.90
8684;DHT22;4379;59.744;18.206;2023-02-13T14:44:56;4.70;99.90
8684;DHT22;4379;59.744;18.206;2023-02-13T14:47:31;4.60;99.90
8684;DHT22;4379;59.744;18.206;2023-02-13T14:50:03;4.50;99.90
8684;DHT22;4379;59.744;18.206;2023-02-13T14:52:38;4.50;99.90
8684;DHT22;4379;59.744;18.206;2023-02-13T14:58:35;4.30;99.90
8684;DHT22;4379;59.744;18.206;2023-02-13T15:01:16;4.20;99.90
8684;DHT22;4379;59.744;18.206;2023-02-13T15:03:50;4.10;99.90
8684;DHT22;4379;59.744;18.206;2023-02-13T15:06:22;4.20;99.90
8684;DHT22;4379;59.744;18.206;2023-02-13T15:08:53;4.30;99.90
8684;DHT22;4379;59.744;18.206;2023-02-13T15:14:27;4.30;99.90
8684;DHT22;4379;59.744;18.206;2023-02-13T15:19:35;4.20;99.90
8684;DHT22;4379;59.744;18.206;2023-02-13T15:22:04;4.20;99.90
8684;DHT22;4379;59.744;18.206;2023-02-13T15:24:42;4.20;99.90
8684;DHT22;4379;59.744;18.206;2023-02-13T15:27:25;4.00;99.90
8684;DHT22;4379;59.744;18.206;2023-02-13T15:30:18;4.00;99.90
8684;DHT22;4379;59.744;18.206;2023-02-13T15:32:53;4.00;99.90
8684;DHT22;4379;59.744;18.206;2023-02-13T15:35:28;4.00;99.90
8684;DHT22;4379;59.744;18.206;2023-02-13T15:37:58;4.00;99.90
8684;DHT22;4379;59.744;18.206;2023-02-13T15:40:30;3.90;99.90
8684;DHT22;4379;59.744;18.206;2023-02-13T15:42:59;3.90;99.90
8684;DHT22;4379;59.744;18.206;2023-02-13T15:45:28;3.90;99.90
8684;DHT22;4379;59.744;18.206;2023-02-13T15:47:56;3.80;99.90
8684;DHT22;4379;59.744;18.206;2023-02-13T15:50:29;3.80;99.90
8684;DHT22;4379;59.744;18.206;2023-02-13T15:52:58;3.90;99.90
8684;DHT22;4379;59.744;18.206;2023-02-13T15:55:29;3.80;99.90
8684;DHT22;4379;59.744;18.206;2023-02-13T15:57:59;3.70;99.90
8684;DHT22;4379;59.744;18.206;2023-02-13T16:00:34;3.70;99.90
8684;DHT22;4379;59.744;18.206;2023-02-13T16:03:05;3.70;99.90
8684;DHT22;4379;59.744;18.206;2023-02-13T16:05:37;3.70;99.90
8684;DHT22;4379;59.744;18.206;2023-02-13T16:13:40;3.70;99.90
8684;DHT22;4379;59.744;18.206;2023-02-13T16:16:08;3.60;99.90
8684;DHT22;4379;59.744;18.206;2023-02-13T16:18:39;3.60;99.90
8684;DHT22;4379;59.744;18.206;2023-02-13T16:21:07;3.50;99.90
8684;DHT22;4379;59.744;18.206;2023-02-13T16:23:36;3.50;99.90
8684;DHT22;4379;59.744;18.206;2023-02-13T16:26:06;3.50;99.90
8684;DHT22;4379;59.744;18.206;2023-02-13T16:28:38;3.30;99.90
8684;DHT22;4379;59.744;18.206;2023-02-13T16:31:06;3.40;99.90
8684;DHT22;4379;59.744;18.206;2023-02-13T16:33:38;3.40;99.90
8684;DHT22;4379;59.744;18.206;2023-02-13T16:36:23;3.30;99.90
8684;DHT22;4379;59.744;18.206;2023-02-13T16:38:52;3.40;99.90
8684;DHT22;4379;59.744;18.206;2023-02-13T16:44:00;3.40;99.90
8684;DHT22;4379;59.744;18.206;2023-02-13T16:49:20;3.30;99.90
8684;DHT22;4379;59.744;18.206;2023-02-13T16:52:21;3.30;99.90
8684;DHT22;4379;59.744;18.206;2023-02-13T16:54:54;3.40;99.90
8684;DHT22;4379;59.744;18.206;2023-02-13T16:57:33;3.40;99.90
8684;DHT22;4379;59.744;18.206;2023-02-13T17:00:19;3.40;99.90
8684;DHT22;4379;59.744;18.206;2023-02-13T17:02:51;3.30;99.90
8684;DHT22;4379;59.744;18.206;2023-02-13T17:05:40;3.20;99.90
8684;DHT22;4379;59.744;18.206;2023-02-13T17:08:08;3.20;99.90
8684;DHT22;4379;59.744;18.206;2023-02-13T17:10:38;3.20;99.90
8684;DHT22;4379;59.744;18.206;2023-02-13T17:15:44;3.20;99.90
8684;DHT22;4379;59.744;18.206;2023-02-13T17:18:32;3.20;99.90
8684;DHT22;4379;59.744;18.206;2023-02-13T17:21:10;3.20;99.90
8684;DHT22;4379;59.744;18.206;2023-02-13T17:23:41;3.20;99.90
8684;DHT22;4379;59.744;18.206;2023-02-13T17:26:09;3.20;99.90
8684;DHT22;4379;59.744;18.206;2023-02-13T17:28:41;3.20;99.90
8684;DHT22;4379;59.744;18.206;2023-02-13T17:31:10;3.20;99.90
8684;DHT22;4379;59.744;18.206;2023-02-13T17:33:58;3.20;99.90
8684;DHT22;4379;59.744;18.206;2023-02-13T17:36:33;3.30;99.90
8684;DHT22;4379;59.744;18.206;2023-02-13T17:39:17;3.40;99.90
8684;DHT22;4379;59.744;18.206;2023-02-13T17:41:45;3.30;99.90
8684;DHT22;4379;59.744;18.206;2023-02-13T17:44:13;3.20;99.90
8684;DHT22;4379;59.744;18.206;2023-02-13T17:46:40;3.20;99.90
8684;DHT22;4379;59.744;18.206;2023-02-13T17:49:28;3.20;99.90
8684;DHT22;4379;59.744;18.206;2023-02-13T17:51:58;3.30;99.90
8684;DHT22;4379;59.744;18.206;2023-02-13T17:54:28;3.30;99.90
8684;DHT22;4379;59.744;18.206;2023-02-13T17:57:02;3.30;99.90
8684;DHT22;4379;59.744;18.206;2023-02-13T17:59:30;3.20;99.90
8684;DHT22;4379;59.744;18.206;2023-02-13T18:01:58;3.30;99.90
8684;DHT22;4379;59.744;18.206;2023-02-13T18:04:40;3.20;99.90
8684;DHT22;4379;59.744;18.206;2023-02-13T18:07:11;3.30;99.90
8684;DHT22;4379;59.744;18.206;2023-02-13T18:09:39;3.30;99.90
8684;DHT22;4379;59.744;18.206;2023-02-13T18:12:27;3.20;99.90
8684;DHT22;4379;59.744;18.206;2023-02-13T18:14:55;3.30;99.90
8684;DHT22;4379;59.744;18.206;2023-02-13T18:17:24;3.30;99.90
8684;DHT22;4379;59.744;18.206;2023-02-13T18:19:52;3.20;99.90
8684;DHT22;4379;59.744;18.206;2023-02-13T18:22:25;3.20;99.90
8684;DHT22;4379;59.744;18.206;2023-02-13T18:24:53;3.20;99.90
8684;DHT22;4379;59.744;18.206;2023-02-13T18:27:35;3.10;99.90
8684;DHT22;4379;59.744;18.206;2023-02-13T18:30:08;3.20;99.90
8684;DHT22;4379;59.744;18.206;2023-02-13T18:32:36;3.20;99.90
8684;DHT22;4379;59.744;18.206;2023-02-13T18:35:04;3.10;99.90
8684;DHT22;4379;59.744;18.206;2023-02-13T18:37:34;3.20;99.90
8684;DHT22;4379;59.744;18.206;2023-02-13T18:40:21;3.20;99.90
8684;DHT22;4379;59.744;18.206;2023-02-13T18:42:50;3.10;99.90
8684;DHT22;4379;59.744;18.206;2023-02-13T18:45:30;3.00;99.90
8684;DHT22;4379;59.744;18.206;2023-02-13T18:47:57;2.90;99.90
8684;DHT22;4379;59.744;18.206;2023-02-13T18:50:45;2.70;99.90
8684;DHT22;4379;59.744;18.206;2023-02-13T18:53:13;2.70;99.90
8684;DHT22;4379;59.744;18.206;2023-02-13T18:55:42;2.70;99.90
8684;DHT22;4379;59.744;18.206;2023-02-13T18:58:09;2.70;99.90
8684;DHT22;4379;59.744;18.206;2023-02-13T19:00:46;2.70;99.90
8684;DHT22;4379;59.744;18.206;2023-02-13T19:03:14;2.70;99.90
8684;DHT22;4379;59.744;18.206;2023-02-13T19:05:45;2.50;99.90
8684;DHT22;4379;59.744;18.206;2023-02-13T19:08:12;2.40;99.90
8684;DHT22;4379;59.744;18.206;2023-02-13T19:10:58;2.40;99.90
8684;DHT22;4379;59.744;18.206;2023-02-13T19:13:27;2.50;99.90
8684;DHT22;4379;59.744;18.206;2023-02-13T19:16:10;2.50;99.90
8684;DHT22;4379;59.744;18.206;2023-02-13T19:18:42;2.50;99.90
8684;DHT22;4379;59.744;18.206;2023-02-13T19:21:14;2.50;99.90
8684;DHT22;4379;59.744;18.206;2023-02-13T19:23:43;2.50;99.90